Jennifer — WDF6480 — position and weather

sailwx.info

Track history (hours):
 
Tides and Currents Weather Stations Pressure Air Temp Water Temp Dewpoint Dewpoint Depression Visibility Wind Speed Wind Dir Waves Ship Positions

Jennifer

Owner: John W. Stone Oil Distributor, L.L.C., Gretna, LA. More information available from US FCC via Universal Licensing System and Coast Guard Vessel Documentation Center.

Last reported at 2015-Jan-26 04:15 UTC. Time now 2015-Jan-27 03:25 UTC.
Position N 29°50' W 090°03'.

Length 17 m; draft 3 m.

Type: Tug. MMSI: 367474690.

Date/timePositionNaut miles runAvg speedWind from/ knotsBaromVisibWave heightAir tempDewpointWater temp
2015-Jan-26 04:15N 29°50' W 090°03'0 0.0
2015-Jan-26 03:11N 29°50' W 090°03'0 0.0
2015-Jan-26 02:32N 29°50' W 090°03'0 0.0
2015-Jan-26 01:20N 29°50' W 090°03'0 0.0
2015-Jan-26 00:32N 29°50' W 090°03'1 1.3
2015-Jan-25 23:31N 29°50' W 090°04'3 3.2
2015-Jan-25 22:32N 29°53' W 090°04'2 2.0
2015-Jan-25 21:33N 29°55' W 090°05'1 1.3
2015-Jan-25 20:29N 29°55' W 090°04'0 0.0
2015-Jan-25 19:33N 29°55' W 090°04'0 0.0
2015-Jan-25 18:32N 29°55' W 090°04'0 0.0
2015-Jan-25 17:28N 29°55' W 090°04'0 0.0
2015-Jan-25 16:32N 29°55' W 090°04'0 0.0
2015-Jan-25 15:18N 29°55' W 090°04'5 0.2
2015-Jan-24 09:23N 29°57' W 090°09'4 4.1
2015-Jan-24 08:30N 29°55' W 090°05'2 1.9
2015-Jan-24 07:33N 29°56' W 090°04'2 1.7
2015-Jan-24 06:32N 29°57' W 090°03'6 5.0
2015-Jan-24 05:24N 29°55' W 089°57'3 3.0
2015-Jan-24 04:16N 29°52' W 089°56'  
2015-Jan-21 21:21N 29°56' W 090°00'0 0.0
2015-Jan-21 20:30N 29°56' W 090°00'0 0.0
2015-Jan-21 19:30N 29°56' W 090°00'0 0.0
2015-Jan-21 18:25N 29°56' W 090°00'0 0.0
2015-Jan-21 17:32N 29°56' W 090°00'0 0.1
2015-Jan-21 15:16N 29°56' W 090°00'1 1.4
2015-Jan-21 14:32N 29°56' W 089°59'0 0.2
2015-Jan-21 12:29N 29°56' W 089°59'0 0.0
2015-Jan-21 11:33N 29°56' W 089°59'0 0.0
2015-Jan-21 10:27N 29°56' W 089°59'1 0.8
2015-Jan-21 09:23N 29°56' W 089°60'3 4.1
2015-Jan-21 08:33N 29°55' W 090°04'0 0.2
2015-Jan-21 07:32N 29°55' W 090°04'0 0.0
2015-Jan-21 06:17N 29°55' W 090°04'0 0.0
2015-Jan-21 05:22N 29°55' W 090°04'  
2015-Jan-18 22:14N 29°55' W 090°04'0 0.1
2015-Jan-18 19:07N 29°55' W 090°04'0 0.2
2015-Jan-18 18:21N 29°55' W 090°04'0 0.0
2015-Jan-18 17:16N 29°55' W 090°04'0 0.0
2015-Jan-18 16:10N 29°55' W 090°04'0 0.0
2015-Jan-18 15:26N 29°55' W 090°04'0 0.0
2015-Jan-18 14:28N 29°55' W 090°04'0 0.0
2015-Jan-18 13:31N 29°55' W 090°04'2 1.8
2015-Jan-18 12:32N 29°57' W 090°03'3 3.1
2015-Jan-18 11:30N 29°56' W 089°60'0 0.1
2015-Jan-18 10:32N 29°56' W 089°60'0 0.0
2015-Jan-18 09:34N 29°56' W 089°60'2 1.8
2015-Jan-18 08:33N 29°57' W 090°02'3 2.5
2015-Jan-18 07:32N 29°55' W 090°04'0 0.0
2015-Jan-18 06:32N 29°55' W 090°04'0 0.0
2015-Jan-18 05:33N 29°55' W 090°04'0 0.0
2015-Jan-18 04:33N 29°55' W 090°04'0 0.1
2015-Jan-18 03:33N 29°55' W 090°04'0 0.2
2015-Jan-18 02:24N 29°55' W 090°04'0 0.0
2015-Jan-18 01:29N 29°55' W 090°04'0 0.0
2015-Jan-18 00:33N 29°55' W 090°04'0 0.0
2015-Jan-17 23:32N 29°55' W 090°04'0 0.0
2015-Jan-17 22:32N 29°55' W 090°04'3 2.7
2015-Jan-17 21:31N 29°57' W 090°01'4 4.4
2015-Jan-17 20:31N 29°55' W 089°56'7 0.4
2015-Jan-17 04:25N 29°58' W 090°03'2 1.1
2015-Jan-17 02:23N 29°55' W 090°04'0 0.0
2015-Jan-17 01:30N 29°55' W 090°04'0 0.0
2015-Jan-17 00:29N 29°55' W 090°04'0 0.0
2015-Jan-16 23:31N 29°55' W 090°04'0 0.0
2015-Jan-16 22:33N 29°55' W 090°04'0 0.0
2015-Jan-16 21:31N 29°55' W 090°04'0 0.0
2015-Jan-16 20:32N 29°55' W 090°04'0 0.1
2015-Jan-16 19:33N 29°55' W 090°04'0 0.0
2015-Jan-16 12:20N 29°55' W 090°04'10 2.4
2015-Jan-16 08:08N 29°46' W 090°07'  
Track history (hours):
 
Tides and Currents Weather Stations Pressure Air Temp Water Temp Dewpoint Dewpoint Depression Visibility Wind Speed Wind Dir Waves Ship Positions

Jennifer

Owner: John W. Stone Oil Distributor, L.L.C., Gretna, LA. More information available from US FCC via Universal Licensing System and Coast Guard Vessel Documentation Center.

Last reported at 2015-Jan-26 04:15 UTC. Time now 2015-Jan-27 03:25 UTC.
Position N 29°50' W 090°03'.

Length 17 m; draft 3 m.

Type: Tug. MMSI: 367474690.

Date/timePositionNaut miles runAvg speedWind from/ knotsBaromVisibWave heightAir tempDewpointWater temp
2015-Jan-26 04:15N 29°50' W 090°03'0 0.0
2015-Jan-26 03:11N 29°50' W 090°03'0 0.0
2015-Jan-26 02:32N 29°50' W 090°03'0 0.0
2015-Jan-26 01:20N 29°50' W 090°03'0 0.0
2015-Jan-26 00:32N 29°50' W 090°03'1 1.3
2015-Jan-25 23:31N 29°50' W 090°04'3 3.2
2015-Jan-25 22:32N 29°53' W 090°04'2 2.0
2015-Jan-25 21:33N 29°55' W 090°05'1 1.3
2015-Jan-25 20:29N 29°55' W 090°04'0 0.0
2015-Jan-25 19:33N 29°55' W 090°04'0 0.0
2015-Jan-25 18:32N 29°55' W 090°04'0 0.0
2015-Jan-25 17:28N 29°55' W 090°04'0 0.0
2015-Jan-25 16:32N 29°55' W 090°04'0 0.0
2015-Jan-25 15:18N 29°55' W 090°04'5 0.2
2015-Jan-24 09:23N 29°57' W 090°09'4 4.1
2015-Jan-24 08:30N 29°55' W 090°05'2 1.9
2015-Jan-24 07:33N 29°56' W 090°04'2 1.7
2015-Jan-24 06:32N 29°57' W 090°03'6 5.0
2015-Jan-24 05:24N 29°55' W 089°57'3 3.0
2015-Jan-24 04:16N 29°52' W 089°56'  
2015-Jan-21 21:21N 29°56' W 090°00'0 0.0
2015-Jan-21 20:30N 29°56' W 090°00'0 0.0
2015-Jan-21 19:30N 29°56' W 090°00'0 0.0
2015-Jan-21 18:25N 29°56' W 090°00'0 0.0
2015-Jan-21 17:32N 29°56' W 090°00'0 0.1
2015-Jan-21 15:16N 29°56' W 090°00'1 1.4
2015-Jan-21 14:32N 29°56' W 089°59'0 0.2
2015-Jan-21 12:29N 29°56' W 089°59'0 0.0
2015-Jan-21 11:33N 29°56' W 089°59'0 0.0
2015-Jan-21 10:27N 29°56' W 089°59'1 0.8
2015-Jan-21 09:23N 29°56' W 089°60'3 4.1
2015-Jan-21 08:33N 29°55' W 090°04'0 0.2
2015-Jan-21 07:32N 29°55' W 090°04'0 0.0
2015-Jan-21 06:17N 29°55' W 090°04'0 0.0
2015-Jan-21 05:22N 29°55' W 090°04'  
2015-Jan-18 22:14N 29°55' W 090°04'0 0.1
2015-Jan-18 19:07N 29°55' W 090°04'0 0.2
2015-Jan-18 18:21N 29°55' W 090°04'0 0.0
2015-Jan-18 17:16N 29°55' W 090°04'0 0.0
2015-Jan-18 16:10N 29°55' W 090°04'0 0.0
2015-Jan-18 15:26N 29°55' W 090°04'0 0.0
2015-Jan-18 14:28N 29°55' W 090°04'0 0.0
2015-Jan-18 13:31N 29°55' W 090°04'2 1.8
2015-Jan-18 12:32N 29°57' W 090°03'3 3.1
2015-Jan-18 11:30N 29°56' W 089°60'0 0.1
2015-Jan-18 10:32N 29°56' W 089°60'0 0.0
2015-Jan-18 09:34N 29°56' W 089°60'2 1.8
2015-Jan-18 08:33N 29°57' W 090°02'3 2.5
2015-Jan-18 07:32N 29°55' W 090°04'0 0.0
2015-Jan-18 06:32N 29°55' W 090°04'0 0.0
2015-Jan-18 05:33N 29°55' W 090°04'0 0.0
2015-Jan-18 04:33N 29°55' W 090°04'0 0.1
2015-Jan-18 03:33N 29°55' W 090°04'0 0.2
2015-Jan-18 02:24N 29°55' W 090°04'0 0.0
2015-Jan-18 01:29N 29°55' W 090°04'0 0.0
2015-Jan-18 00:33N 29°55' W 090°04'0 0.0
2015-Jan-17 23:32N 29°55' W 090°04'0 0.0
2015-Jan-17 22:32N 29°55' W 090°04'3 2.7
2015-Jan-17 21:31N 29°57' W 090°01'4 4.4
2015-Jan-17 20:31N 29°55' W 089°56'7 0.4
2015-Jan-17 04:25N 29°58' W 090°03'2 1.1
2015-Jan-17 02:23N 29°55' W 090°04'0 0.0
2015-Jan-17 01:30N 29°55' W 090°04'0 0.0
2015-Jan-17 00:29N 29°55' W 090°04'0 0.0
2015-Jan-16 23:31N 29°55' W 090°04'0 0.0
2015-Jan-16 22:33N 29°55' W 090°04'0 0.0
2015-Jan-16 21:31N 29°55' W 090°04'0 0.0
2015-Jan-16 20:32N 29°55' W 090°04'0 0.1
2015-Jan-16 19:33N 29°55' W 090°04'0 0.0
2015-Jan-16 12:20N 29°55' W 090°04'10 2.4
2015-Jan-16 08:08N 29°46' W 090°07'  

Dump ship's entire track history